Phuket, Thailand

9:35 PM ICT on July 28, 2014 (GMT +0700)
Phuket International (VTSP) Elev 30 ft | 8.11 °N, 98.32 °E | Change Station

Current weather conditions updated 35 minutes ago

Mostly Cloudy
Mostly Cloudy
82 °F
Feels Like 90 °F
N
5
Wind Variable Wind from Variable

Tomorrow is forecast to be Cooler than today. Thunderstorms.

Today
High -- | Low -- °F
--% Chance of Precip.
Yesterday
High -- | Low -- °F
Precip. -- in
6:18 AM 6:48 PM
New Moon, 2% visible
Pressure 29.83 in
Visibility 5.0 miles
Clouds Few 1800 ft
Mostly Cloudy 30000 ft
Heat Index 90 °F
Dew Point 75 °F
Humidity 79%
Rainfall 0.00 in
Snow Depth Not available.
UV 0 out of 12
Pollen Not available.
Air Quality Not available.
Flu Activity Not available.
METAR VTSP 281400Z VRB04KT 8000 FEW018 BKN300 28/24 Q1010 A2983 NOSIG

More Conditions Fewer Conditions

Pressure 29.83 in
Visibility 5.0 miles
Clouds Few 1800 ft
Mostly Cloudy 30000 ft
Heat Index 90 °F
Dew Point 75 °F
Humidity 79%
Rainfall 0.00 in
Snow Depth Not available.
UV 0 out of 12
Pollen Not available.
Air Quality Not available.
Flu Activity Not available.
METAR VTSP 281400Z VRB04KT 8000 FEW018 BKN300 28/24 Q1010 A2983 NOSIG

More Conditions Fewer Conditions

10-Day Weather Forecast

Almanac

Astronomy

Jul. 28, 2014 Rise Set
Actual Time 6:18 AM ICT 6:48 PM ICT
Civil Twilight 5:56 AM ICT 7:10 PM ICT
Nautical Twilight 5:30 AM ICT 7:36 PM ICT
Astronomical Twilight 5:04 AM ICT 8:02 PM ICT
Moon 7:07 AM ICT 7:41 PM ICT
Length of Visible Light 13h 14m
Length of Day
12h 29m
Tomorrow will be 0m 19s shorter.
New Moon, 2% of the Moon is Illuminated
Today
New Moon
Aug 3
First Quarter
Aug 10
Full
Aug 17
Last Quarter
Aug 25
New

Yesterday's Extremes

Country Highs Country Lows

Community

WunderPhotos

Upload Photos

1,738,343 photos uploaded!

Nearby

Snow Depth

Not available.

Earthquake Activity

City Distance Mag. Time & Date
No recent earthquake activity has been reported nearby.
Minimum magnitude displayed is 2.5.

Coastal Water Temperatures

Place Temperature
No Stations Reporting

Nearby Weather Stations

Station Location Temp. Heat Index Dew Point Humidity Wind Precip. Elev Updated Type
Cherngtalay, Thalang, Phuket 82.3 °F 92 °F 79 °F 88% SW  at  1.0 mph 0.00 in / hr 39 ft 9:26 PM ICT Normal
Ao Chalong Yacht Club, Wichit 83.1 °F 93 °F 79 °F 84% NW  at  8.3 mph 0.00 in / hr 20 ft 9:30 PM ICT Normal
Mig`s house, Phuket 82.4 °F 89 °F 76 °F 78% NW  at  8.3 mph 0.00 in / hr 35 ft 9:35 PM ICT Normal
Promthep Cape, Phuket, Rawai 82.6 °F 92 °F 78 °F 85% NW  at  1.0 mph 0.00 in / hr 190 ft 9:35 PM ICT Rapid Fire

Show More Stations Show Fewer Stations